Lazurite — UBLC — position and weather

sailwx.info

Track history (hours):
 
Tides and Currents Weather Stations Pressure Air Temp Water Temp Dewpoint Dewpoint Depression Visibility Wind Speed Wind Dir Waves Ship Positions

Lazurite

Last reported at 2018-Jul-20 06:33 UTC. Time now 2018-Jul-23 00:12 UTC.
Position N 56°04' E 012°38'.

Length 90 m; draft 6.5 m.

Type: Ship. MMSI: 273338540.

Date/timePositionNaut miles runAvg speedWind from/ knotsBaromVisibWave heightAir tempDewpointWater temp
2018-Jul-20 06:33N 56°04' E 012°38'0 8.9
2018-Jul-20 06:30N 56°04' E 012°38'4 8.5
2018-Jul-20 06:00N 56°00' E 012°42'4 8.8
2018-Jul-20 05:30N 55°56' E 012°44'4 8.5
2018-Jul-20 05:00N 55°52' E 012°44'4 8.9
2018-Jul-20 04:30N 55°47' E 012°42'5 9.0
2018-Jul-20 04:00N 55°43' E 012°41'4 8.9
2018-Jul-20 03:30N 55°38' E 012°42'4 8.5
2018-Jul-20 03:00N 55°34' E 012°42'4 8.7
2018-Jul-20 02:30N 55°30' E 012°43'5 9.0
2018-Jul-20 01:59N 55°25' E 012°43'4 9.1
2018-Jul-20 01:29N 55°21' E 012°41'46 9.4
2018-Jul-19 20:38N 55°14' E 014°00'2 9.7
2018-Jul-19 20:26N 55°14' E 014°04'5 9.8
2018-Jul-19 19:57N 55°14' E 014°12'4 9.0
2018-Jul-19 19:29N 55°16' E 014°19'5 9.8
2018-Jul-19 18:59N 55°20' E 014°24'8 9.5
2018-Jul-19 18:05N 55°26' E 014°34'2 9.1
2018-Jul-19 17:50N 55°28' E 014°37'22 9.5
2018-Jul-19 15:30N 55°39' E 015°11'5 9.4
2018-Jul-19 15:00N 55°41' E 015°18'5 9.2
2018-Jul-19 14:30N 55°44' E 015°25'9 9.0
2018-Jul-19 13:30N 55°48' E 015°39'5 9.3
2018-Jul-19 13:00N 55°50' E 015°46'5 9.3
2018-Jul-19 12:30N 55°53' E 015°53'5 9.4
2018-Jul-19 12:00N 55°55' E 016°00'5 9.6
2018-Jul-19 11:30N 55°58' E 016°08'5 9.6
2018-Jul-19 11:00N 55°60' E 016°15'5 9.7
2018-Jul-19 10:30N 56°02' E 016°23'5 9.8
2018-Jul-19 10:00N 56°05' E 016°30'46 9.6
2018-Jul-19 05:12N 56°32' E 017°37'3 9.8
2018-Jul-19 04:56N 56°34' E 017°41'154 9.5
2018-Jul-18 12:45N 58°33' E 020°44'3 9.5
2018-Jul-18 12:29N 58°35' E 020°47'19 9.7
2018-Jul-18 10:30N 58°50' E 021°08'5 9.9
2018-Jul-18 10:00N 58°54' E 021°13'5 9.8
2018-Jul-18 09:30N 58°58' E 021°19'5 9.6
2018-Jul-18 09:00N 59°02' E 021°24'5 9.5
2018-Jul-18 08:30N 59°06' E 021°30'5 9.5
2018-Jul-18 08:00N 59°10' E 021°36'5 9.5
2018-Jul-18 07:30N 59°13' E 021°43'5 9.6
2018-Jul-18 07:00N 59°16' E 021°50'5 9.5
2018-Jul-18 06:30N 59°19' E 021°57'22 9.4
2018-Jul-18 04:09N 59°32' E 022°32'58 9.8
2018-Jul-17 22:13N 59°48' E 024°23'2 9.6
2018-Jul-17 22:00N 59°48' E 024°27'5 9.6
2018-Jul-17 21:31N 59°49' E 024°36'5 9.1
2018-Jul-17 21:00N 59°50' E 024°45'45 9.5
2018-Jul-17 16:17N 59°59' E 026°12'3 8.9
2018-Jul-17 15:59N 59°60' E 026°17'4 9.3
2018-Jul-17 15:30N 60°01' E 026°26'5 9.3
2018-Jul-17 15:00N 60°02' E 026°35'610.1
2018-Jul-17 14:28N 60°01' E 026°46'4 9.1
2018-Jul-17 13:58N 60°00' E 026°55'4 9.1
2018-Jul-17 13:30N 59°60' E 027°03'4 8.9
2018-Jul-17 13:00N 60°02' E 027°11'4 8.8
2018-Jul-17 12:30N 60°04' E 027°19'510.0
2018-Jul-17 11:59N 60°07' E 027°28'5 9.3
2018-Jul-17 11:28N 60°09' E 027°36'4 9.3
2018-Jul-17 10:59N 60°12' E 027°43'4 9.0
2018-Jul-17 10:30N 60°15' E 027°50'5 9.3
2018-Jul-17 10:00N 60°18' E 027°55'5 9.7
2018-Jul-17 09:30N 60°22' E 028°01'5 9.7
2018-Jul-17 09:00N 60°25' E 028°09'5 9.7
2018-Jul-17 08:29N 60°28' E 028°18'1 0.0
2018-Jul-15 10:42N 60°27' E 028°20'3 9.7
2018-Jul-15 10:26N 60°26' E 028°16'4 9.7
2018-Jul-15 10:00N 60°25' E 028°08'4 7.4
2018-Jul-15 09:30N 60°22' E 028°02'510.5
2018-Jul-15 09:00N 60°18' E 027°56'3 6.6
2018-Jul-15 08:30N 60°15' E 027°52'4 7.2
2018-Jul-15 08:00N 60°12' E 027°48'3 6.7
2018-Jul-15 07:30N 60°10' E 027°43'510.2
2018-Jul-15 07:00N 60°07' E 027°34'611.5
2018-Jul-15 06:28N 60°04' E 027°24'510.8
2018-Jul-15 05:57N 60°01' E 027°14'510.2
2018-Jul-15 05:30N 59°59' E 027°07'510.1
2018-Jul-15 05:01N 59°58' E 026°56'611.1
2018-Jul-15 04:30N 59°59' E 026°46'611.5
2018-Jul-15 04:00N 59°59' E 026°34'610.9
2018-Jul-15 03:30N 59°57' E 026°23'4310.9
2018-Jul-14 23:30N 59°47' E 024°59'5 9.9
2018-Jul-14 23:00N 59°46' E 024°50'711.3
2018-Jul-14 22:25N 59°44' E 024°37'410.3
2018-Jul-14 22:00N 59°43' E 024°28'21710.5
2018-Jul-14 01:15N 58°38' E 017°44'210.5
2018-Jul-14 01:00N 58°38' E 017°39'510.4
2018-Jul-14 00:30N 58°38' E 017°29'510.5
2018-Jul-14 00:00N 58°37' E 017°19'510.0
2018-Jul-13 23:30N 58°38' E 017°10'3 4.7
2018-Jul-13 22:58N 58°40' E 017°07'0 0.0
2018-Jul-13 22:28N 58°40' E 017°07'0 0.0
2018-Jul-13 22:00N 58°40' E 017°07'0 0.0
2018-Jul-13 21:30N 58°40' E 017°07'0 0.0
2018-Jul-13 21:00N 58°40' E 017°07'0 0.0
2018-Jul-13 20:28N 58°40' E 017°07'0 0.0
2018-Jul-13 19:58N 58°40' E 017°07'0 0.0
2018-Jul-13 19:25N 58°40' E 017°07'0 0.0
2018-Jul-13 19:00N 58°40' E 017°07'0 0.0
2018-Jul-13 18:26N 58°40' E 017°07'0 0.0
2018-Jul-13 17:59N 58°40' E 017°07'0 0.0
2018-Jul-13 17:28N 58°40' E 017°07'0 0.0
2018-Jul-13 16:55N 58°40' E 017°07'0 0.0
2018-Jul-13 16:19N 58°40' E 017°07'0 0.0
2018-Jul-13 15:55N 58°40' E 017°07'0 0.0
2018-Jul-13 15:28N 58°40' E 017°07'0 0.0
2018-Jul-13 14:52N 58°40' E 017°07'0 0.0
2018-Jul-13 13:58N 58°40' E 017°07'0 0.0
2018-Jul-13 13:27N 58°40' E 017°07'0 0.0
2018-Jul-13 13:00N 58°40' E 017°07'0 0.0
2018-Jul-13 12:29N 58°40' E 017°07'0 0.0
2018-Jul-13 11:59N 58°40' E 017°07'0 0.0
2018-Jul-13 11:29N 58°40' E 017°07'0 0.0
2018-Jul-13 10:58N 58°40' E 017°07'0 0.0
2018-Jul-13 10:29N 58°40' E 017°07'0 0.0
2018-Jul-13 09:56N 58°40' E 017°07'0 0.0
2018-Jul-13 09:30N 58°40' E 017°07'0 0.0
2018-Jul-13 09:00N 58°40' E 017°07'0 0.0
2018-Jul-13 08:30N 58°40' E 017°07'0 0.0
2018-Jul-13 07:57N 58°40' E 017°07'0 0.0
2018-Jul-13 07:29N 58°40' E 017°07'0 0.0
2018-Jul-13 06:59N 58°40' E 017°07'0 0.0
2018-Jul-13 06:29N 58°40' E 017°07'0 0.0
2018-Jul-13 05:59N 58°40' E 017°07'0 0.0
2018-Jul-13 05:29N 58°40' E 017°07'0 0.0
2018-Jul-13 04:59N 58°40' E 017°07'0 0.0
2018-Jul-13 04:29N 58°40' E 017°07'0 0.0
2018-Jul-13 04:00N 58°40' E 017°07'0 0.0
2018-Jul-13 03:30N 58°40' E 017°07'0 0.0
2018-Jul-13 03:00N 58°40' E 017°07'0 0.0
2018-Jul-13 02:26N 58°40' E 017°07'0 0.0
2018-Jul-13 01:57N 58°40' E 017°07'0 0.0
2018-Jul-13 01:27N 58°40' E 017°07'0 0.0
2018-Jul-13 00:59N 58°40' E 017°07'0 0.0
2018-Jul-13 00:28N 58°40' E 017°07'0 0.0
2018-Jul-12 23:58N 58°40' E 017°07'0 0.0
2018-Jul-12 23:28N 58°40' E 017°07'0 0.0
2018-Jul-12 22:55N 58°40' E 017°07'0 0.0
2018-Jul-12 22:28N 58°40' E 017°07'0 0.0
2018-Jul-12 22:00N 58°40' E 017°07'0 0.0
2018-Jul-12 21:30N 58°40' E 017°07'0 0.0
2018-Jul-12 20:59N 58°40' E 017°07'0 0.0
2018-Jul-12 20:29N 58°40' E 017°07'0 0.0
2018-Jul-12 19:59N 58°40' E 017°07'0 0.0
2018-Jul-12 19:27N 58°40' E 017°07'0 0.0
2018-Jul-12 18:54N 58°40' E 017°07'0 0.0
2018-Jul-12 18:30N 58°40' E 017°07'0 0.0
2018-Jul-12 18:00N 58°40' E 017°07'0 0.0
2018-Jul-12 17:30N 58°40' E 017°07'0 0.0
2018-Jul-12 17:00N 58°40' E 017°07'0 0.0
2018-Jul-12 16:30N 58°40' E 017°07'0 0.0
2018-Jul-12 15:57N 58°40' E 017°07'0 0.0
2018-Jul-12 15:30N 58°40' E 017°07'0 0.0
2018-Jul-12 14:57N 58°40' E 017°07'0 0.0
2018-Jul-12 14:30N 58°40' E 017°07'0 0.0
2018-Jul-12 14:00N 58°40' E 017°07'0 0.0
2018-Jul-12 13:30N 58°40' E 017°07'0 0.0
2018-Jul-12 12:54N 58°40' E 017°07'0 0.0
2018-Jul-12 12:30N 58°40' E 017°07'0 0.0
2018-Jul-12 12:00N 58°40' E 017°07'0 0.0
2018-Jul-12 11:28N 58°40' E 017°07'0 0.0
2018-Jul-12 10:58N 58°40' E 017°07'0 0.0
2018-Jul-12 10:28N 58°40' E 017°07'0 0.0
2018-Jul-12 09:58N 58°40' E 017°07'0 0.0
2018-Jul-12 09:28N 58°40' E 017°07'0 0.0
2018-Jul-12 08:58N 58°40' E 017°07'0 0.0
2018-Jul-12 08:20N 58°40' E 017°07'0 0.0
2018-Jul-12 07:53N 58°40' E 017°07'0 0.0
2018-Jul-12 07:20N 58°40' E 017°07'0 0.0
2018-Jul-12 06:59N 58°40' E 017°07'0 0.0
2018-Jul-12 06:28N 58°40' E 017°07'0 0.0
2018-Jul-12 05:58N 58°40' E 017°07'0 0.0
2018-Jul-12 05:26N 58°40' E 017°07'0 0.0
2018-Jul-12 04:59N 58°40' E 017°07'0 0.0
2018-Jul-12 04:26N 58°40' E 017°07'0 0.0
2018-Jul-12 03:59N 58°40' E 017°07'0 0.0
2018-Jul-12 03:29N 58°40' E 017°07'0 0.0
2018-Jul-12 02:56N 58°40' E 017°07'0 0.0
2018-Jul-12 02:30N 58°40' E 017°07'0 0.0
2018-Jul-12 02:00N 58°40' E 017°07'0 0.0
2018-Jul-12 01:29N 58°40' E 017°07'0 0.0
2018-Jul-12 00:59N 58°40' E 017°07'0 0.0
2018-Jul-12 00:29N 58°40' E 017°07'0 0.0
2018-Jul-11 23:59N 58°40' E 017°07'0 0.0
2018-Jul-11 23:23N 58°40' E 017°07'0 0.0
2018-Jul-11 22:59N 58°40' E 017°07'0 0.0
2018-Jul-11 22:26N 58°40' E 017°07'0 0.0
2018-Jul-11 22:00N 58°40' E 017°07'0 0.0
2018-Jul-11 21:30N 58°40' E 017°07'0 0.0
2018-Jul-11 20:59N 58°40' E 017°07'0 0.0
2018-Jul-11 20:29N 58°40' E 017°07'0 0.0
2018-Jul-11 19:53N 58°40' E 017°07'0 0.0
2018-Jul-11 19:26N 58°40' E 017°07'0 0.0
2018-Jul-11 18:56N 58°40' E 017°07'0 0.0
2018-Jul-11 18:26N 58°40' E 017°07'0 0.0
2018-Jul-11 17:56N 58°40' E 017°07'0 0.0
2018-Jul-11 17:20N 58°40' E 017°07'0 0.0
2018-Jul-11 16:53N 58°40' E 017°07'0 0.0
2018-Jul-11 16:29N 58°40' E 017°07'0 0.0
2018-Jul-11 15:59N 58°40' E 017°07'0 0.0
2018-Jul-11 15:29N 58°40' E 017°07'0 0.0
2018-Jul-11 14:56N 58°40' E 017°07'0 0.0
2018-Jul-11 14:29N 58°40' E 017°07'0 0.0
2018-Jul-11 13:56N 58°40' E 017°07'0 0.0
2018-Jul-11 13:24N 58°40' E 017°07'0 0.0
2018-Jul-11 12:54N 58°40' E 017°07'0 0.0
2018-Jul-11 12:24N 58°40' E 017°07'0 0.0
2018-Jul-11 12:00N 58°40' E 017°07'0 0.0
2018-Jul-11 11:30N 58°40' E 017°07'0 0.0
2018-Jul-11 11:00N 58°40' E 017°07'0 0.0
2018-Jul-11 10:18N 58°40' E 017°07'0 0.0
2018-Jul-11 10:00N 58°40' E 017°07'0 0.0
2018-Jul-11 09:30N 58°40' E 017°07'0 0.0
2018-Jul-11 08:57N 58°40' E 017°07'0 0.0
2018-Jul-11 08:28N 58°40' E 017°07'0 0.0
2018-Jul-11 07:58N 58°40' E 017°07'0 0.0
2018-Jul-11 07:25N 58°40' E 017°07'0 0.0
2018-Jul-11 06:58N 58°40' E 017°07'0 0.0
2018-Jul-11 06:24N 58°40' E 017°07'0 0.0
2018-Jul-11 05:59N 58°40' E 017°07'0 0.0
2018-Jul-11 05:29N 58°40' E 017°07'0 0.0
2018-Jul-11 04:58N 58°40' E 017°07'0 0.0
2018-Jul-11 04:27N 58°40' E 017°07'0 0.0
2018-Jul-11 03:57N 58°40' E 017°07'0 0.0
2018-Jul-11 03:30N 58°40' E 017°07'0 0.0
2018-Jul-11 02:59N 58°40' E 017°07'0 0.0
2018-Jul-11 02:29N 58°40' E 017°07'0 0.0
2018-Jul-11 01:59N 58°40' E 017°07'0 0.0
2018-Jul-11 01:29N 58°40' E 017°07'0 0.0
2018-Jul-11 00:58N 58°40' E 017°07'0 0.0
2018-Jul-11 00:30N 58°40' E 017°07'0 0.0
2018-Jul-11 00:00N 58°40' E 017°07'0 0.0
2018-Jul-10 23:27N 58°40' E 017°07'0 0.0
2018-Jul-10 23:00N 58°40' E 017°07'0 0.0
2018-Jul-10 22:25N 58°40' E 017°07'0 0.0
2018-Jul-10 21:58N 58°40' E 017°07'0 0.0
2018-Jul-10 21:28N 58°40' E 017°07'0 0.0
2018-Jul-10 20:58N 58°40' E 017°07'0 0.0
2018-Jul-10 20:28N 58°40' E 017°07'0 0.0
2018-Jul-10 19:58N 58°40' E 017°07'0 0.0
2018-Jul-10 19:25N 58°40' E 017°07'0 0.0
2018-Jul-10 18:52N 58°40' E 017°07'0 0.0
2018-Jul-10 18:16N 58°40' E 017°07'0 0.0
2018-Jul-10 17:55N 58°40' E 017°07'0 0.0
2018-Jul-10 17:26N 58°40' E 017°07'0 0.0
2018-Jul-10 16:50N 58°40' E 017°07'0 0.0
2018-Jul-10 16:29N 58°40' E 017°07'0 0.0
2018-Jul-10 15:59N 58°40' E 017°07'0 0.0
2018-Jul-10 15:20N 58°40' E 017°07'0 0.0
2018-Jul-10 14:54N 58°40' E 017°07'0 0.0
2018-Jul-10 14:29N 58°40' E 017°07'0 0.0
2018-Jul-10 13:58N 58°40' E 017°07'0 0.0
2018-Jul-10 13:25N 58°40' E 017°07'0 0.0
2018-Jul-10 12:58N 58°40' E 017°07'0 0.0
2018-Jul-10 12:25N 58°40' E 017°07'0 0.0
2018-Jul-10 11:55N 58°40' E 017°07'0 0.0
2018-Jul-10 11:21N 58°40' E 017°07'0 0.0
2018-Jul-10 10:54N 58°40' E 017°07'0 0.0
2018-Jul-10 10:28N 58°40' E 017°07'0 0.4
2018-Jul-10 09:59N 58°40' E 017°06'0 0.0
2018-Jul-10 09:28N 58°40' E 017°06'0 0.0
2018-Jul-10 08:58N 58°40' E 017°06'0 0.0
2018-Jul-10 08:26N 58°40' E 017°06'0 0.0
2018-Jul-10 07:50N 58°40' E 017°06'0 0.0
2018-Jul-10 07:29N 58°40' E 017°06'0 0.0
2018-Jul-10 06:51N 58°40' E 017°06'  
Track history (hours):
 
Tides and Currents Weather Stations Pressure Air Temp Water Temp Dewpoint Dewpoint Depression Visibility Wind Speed Wind Dir Waves Ship Positions

Lazurite

Last reported at 2018-Jul-20 06:33 UTC. Time now 2018-Jul-23 00:12 UTC.
Position N 56°04' E 012°38'.

Length 90 m; draft 6.5 m.

Type: Ship. MMSI: 273338540.

Date/timePositionNaut miles runAvg speedWind from/ knotsBaromVisibWave heightAir tempDewpointWater temp
2018-Jul-20 06:33N 56°04' E 012°38'0 8.9
2018-Jul-20 06:30N 56°04' E 012°38'4 8.5
2018-Jul-20 06:00N 56°00' E 012°42'4 8.8
2018-Jul-20 05:30N 55°56' E 012°44'4 8.5
2018-Jul-20 05:00N 55°52' E 012°44'4 8.9
2018-Jul-20 04:30N 55°47' E 012°42'5 9.0
2018-Jul-20 04:00N 55°43' E 012°41'4 8.9
2018-Jul-20 03:30N 55°38' E 012°42'4 8.5
2018-Jul-20 03:00N 55°34' E 012°42'4 8.7
2018-Jul-20 02:30N 55°30' E 012°43'5 9.0
2018-Jul-20 01:59N 55°25' E 012°43'4 9.1
2018-Jul-20 01:29N 55°21' E 012°41'46 9.4
2018-Jul-19 20:38N 55°14' E 014°00'2 9.7
2018-Jul-19 20:26N 55°14' E 014°04'5 9.8
2018-Jul-19 19:57N 55°14' E 014°12'4 9.0
2018-Jul-19 19:29N 55°16' E 014°19'5 9.8
2018-Jul-19 18:59N 55°20' E 014°24'8 9.5
2018-Jul-19 18:05N 55°26' E 014°34'2 9.1
2018-Jul-19 17:50N 55°28' E 014°37'22 9.5
2018-Jul-19 15:30N 55°39' E 015°11'5 9.4
2018-Jul-19 15:00N 55°41' E 015°18'5 9.2
2018-Jul-19 14:30N 55°44' E 015°25'9 9.0
2018-Jul-19 13:30N 55°48' E 015°39'5 9.3
2018-Jul-19 13:00N 55°50' E 015°46'5 9.3
2018-Jul-19 12:30N 55°53' E 015°53'5 9.4
2018-Jul-19 12:00N 55°55' E 016°00'5 9.6
2018-Jul-19 11:30N 55°58' E 016°08'5 9.6
2018-Jul-19 11:00N 55°60' E 016°15'5 9.7
2018-Jul-19 10:30N 56°02' E 016°23'5 9.8
2018-Jul-19 10:00N 56°05' E 016°30'46 9.6
2018-Jul-19 05:12N 56°32' E 017°37'3 9.8
2018-Jul-19 04:56N 56°34' E 017°41'154 9.5
2018-Jul-18 12:45N 58°33' E 020°44'3 9.5
2018-Jul-18 12:29N 58°35' E 020°47'19 9.7
2018-Jul-18 10:30N 58°50' E 021°08'5 9.9
2018-Jul-18 10:00N 58°54' E 021°13'5 9.8
2018-Jul-18 09:30N 58°58' E 021°19'5 9.6
2018-Jul-18 09:00N 59°02' E 021°24'5 9.5
2018-Jul-18 08:30N 59°06' E 021°30'5 9.5
2018-Jul-18 08:00N 59°10' E 021°36'5 9.5
2018-Jul-18 07:30N 59°13' E 021°43'5 9.6
2018-Jul-18 07:00N 59°16' E 021°50'5 9.5
2018-Jul-18 06:30N 59°19' E 021°57'22 9.4
2018-Jul-18 04:09N 59°32' E 022°32'58 9.8
2018-Jul-17 22:13N 59°48' E 024°23'2 9.6
2018-Jul-17 22:00N 59°48' E 024°27'5 9.6
2018-Jul-17 21:31N 59°49' E 024°36'5 9.1
2018-Jul-17 21:00N 59°50' E 024°45'45 9.5
2018-Jul-17 16:17N 59°59' E 026°12'3 8.9
2018-Jul-17 15:59N 59°60' E 026°17'4 9.3
2018-Jul-17 15:30N 60°01' E 026°26'5 9.3
2018-Jul-17 15:00N 60°02' E 026°35'610.1
2018-Jul-17 14:28N 60°01' E 026°46'4 9.1
2018-Jul-17 13:58N 60°00' E 026°55'4 9.1
2018-Jul-17 13:30N 59°60' E 027°03'4 8.9
2018-Jul-17 13:00N 60°02' E 027°11'4 8.8
2018-Jul-17 12:30N 60°04' E 027°19'510.0
2018-Jul-17 11:59N 60°07' E 027°28'5 9.3
2018-Jul-17 11:28N 60°09' E 027°36'4 9.3
2018-Jul-17 10:59N 60°12' E 027°43'4 9.0
2018-Jul-17 10:30N 60°15' E 027°50'5 9.3
2018-Jul-17 10:00N 60°18' E 027°55'5 9.7
2018-Jul-17 09:30N 60°22' E 028°01'5 9.7
2018-Jul-17 09:00N 60°25' E 028°09'5 9.7
2018-Jul-17 08:29N 60°28' E 028°18'1 0.0
2018-Jul-15 10:42N 60°27' E 028°20'3 9.7
2018-Jul-15 10:26N 60°26' E 028°16'4 9.7
2018-Jul-15 10:00N 60°25' E 028°08'4 7.4
2018-Jul-15 09:30N 60°22' E 028°02'510.5
2018-Jul-15 09:00N 60°18' E 027°56'3 6.6
2018-Jul-15 08:30N 60°15' E 027°52'4 7.2
2018-Jul-15 08:00N 60°12' E 027°48'3 6.7
2018-Jul-15 07:30N 60°10' E 027°43'510.2
2018-Jul-15 07:00N 60°07' E 027°34'611.5
2018-Jul-15 06:28N 60°04' E 027°24'510.8
2018-Jul-15 05:57N 60°01' E 027°14'510.2
2018-Jul-15 05:30N 59°59' E 027°07'510.1
2018-Jul-15 05:01N 59°58' E 026°56'611.1
2018-Jul-15 04:30N 59°59' E 026°46'611.5
2018-Jul-15 04:00N 59°59' E 026°34'610.9
2018-Jul-15 03:30N 59°57' E 026°23'4310.9
2018-Jul-14 23:30N 59°47' E 024°59'5 9.9
2018-Jul-14 23:00N 59°46' E 024°50'711.3
2018-Jul-14 22:25N 59°44' E 024°37'410.3
2018-Jul-14 22:00N 59°43' E 024°28'21710.5
2018-Jul-14 01:15N 58°38' E 017°44'210.5
2018-Jul-14 01:00N 58°38' E 017°39'510.4
2018-Jul-14 00:30N 58°38' E 017°29'510.5
2018-Jul-14 00:00N 58°37' E 017°19'510.0
2018-Jul-13 23:30N 58°38' E 017°10'3 4.7
2018-Jul-13 22:58N 58°40' E 017°07'0 0.0
2018-Jul-13 22:28N 58°40' E 017°07'0 0.0
2018-Jul-13 22:00N 58°40' E 017°07'0 0.0
2018-Jul-13 21:30N 58°40' E 017°07'0 0.0
2018-Jul-13 21:00N 58°40' E 017°07'0 0.0
2018-Jul-13 20:28N 58°40' E 017°07'0 0.0
2018-Jul-13 19:58N 58°40' E 017°07'0 0.0
2018-Jul-13 19:25N 58°40' E 017°07'0 0.0
2018-Jul-13 19:00N 58°40' E 017°07'0 0.0
2018-Jul-13 18:26N 58°40' E 017°07'0 0.0
2018-Jul-13 17:59N 58°40' E 017°07'0 0.0
2018-Jul-13 17:28N 58°40' E 017°07'0 0.0
2018-Jul-13 16:55N 58°40' E 017°07'0 0.0
2018-Jul-13 16:19N 58°40' E 017°07'0 0.0
2018-Jul-13 15:55N 58°40' E 017°07'0 0.0
2018-Jul-13 15:28N 58°40' E 017°07'0 0.0
2018-Jul-13 14:52N 58°40' E 017°07'0 0.0
2018-Jul-13 13:58N 58°40' E 017°07'0 0.0
2018-Jul-13 13:27N 58°40' E 017°07'0 0.0
2018-Jul-13 13:00N 58°40' E 017°07'0 0.0
2018-Jul-13 12:29N 58°40' E 017°07'0 0.0
2018-Jul-13 11:59N 58°40' E 017°07'0 0.0
2018-Jul-13 11:29N 58°40' E 017°07'0 0.0
2018-Jul-13 10:58N 58°40' E 017°07'0 0.0
2018-Jul-13 10:29N 58°40' E 017°07'0 0.0
2018-Jul-13 09:56N 58°40' E 017°07'0 0.0
2018-Jul-13 09:30N 58°40' E 017°07'0 0.0
2018-Jul-13 09:00N 58°40' E 017°07'0 0.0
2018-Jul-13 08:30N 58°40' E 017°07'0 0.0
2018-Jul-13 07:57N 58°40' E 017°07'0 0.0
2018-Jul-13 07:29N 58°40' E 017°07'0 0.0
2018-Jul-13 06:59N 58°40' E 017°07'0 0.0
2018-Jul-13 06:29N 58°40' E 017°07'0 0.0
2018-Jul-13 05:59N 58°40' E 017°07'0 0.0
2018-Jul-13 05:29N 58°40' E 017°07'0 0.0
2018-Jul-13 04:59N 58°40' E 017°07'0 0.0
2018-Jul-13 04:29N 58°40' E 017°07'0 0.0
2018-Jul-13 04:00N 58°40' E 017°07'0 0.0
2018-Jul-13 03:30N 58°40' E 017°07'0 0.0
2018-Jul-13 03:00N 58°40' E 017°07'0 0.0
2018-Jul-13 02:26N 58°40' E 017°07'0 0.0
2018-Jul-13 01:57N 58°40' E 017°07'0 0.0
2018-Jul-13 01:27N 58°40' E 017°07'0 0.0
2018-Jul-13 00:59N 58°40' E 017°07'0 0.0
2018-Jul-13 00:28N 58°40' E 017°07'0 0.0
2018-Jul-12 23:58N 58°40' E 017°07'0 0.0
2018-Jul-12 23:28N 58°40' E 017°07'0 0.0
2018-Jul-12 22:55N 58°40' E 017°07'0 0.0
2018-Jul-12 22:28N 58°40' E 017°07'0 0.0
2018-Jul-12 22:00N 58°40' E 017°07'0 0.0
2018-Jul-12 21:30N 58°40' E 017°07'0 0.0
2018-Jul-12 20:59N 58°40' E 017°07'0 0.0
2018-Jul-12 20:29N 58°40' E 017°07'0 0.0
2018-Jul-12 19:59N 58°40' E 017°07'0 0.0
2018-Jul-12 19:27N 58°40' E 017°07'0 0.0
2018-Jul-12 18:54N 58°40' E 017°07'0 0.0
2018-Jul-12 18:30N 58°40' E 017°07'0 0.0
2018-Jul-12 18:00N 58°40' E 017°07'0 0.0
2018-Jul-12 17:30N 58°40' E 017°07'0 0.0
2018-Jul-12 17:00N 58°40' E 017°07'0 0.0
2018-Jul-12 16:30N 58°40' E 017°07'0 0.0
2018-Jul-12 15:57N 58°40' E 017°07'0 0.0
2018-Jul-12 15:30N 58°40' E 017°07'0 0.0
2018-Jul-12 14:57N 58°40' E 017°07'0 0.0
2018-Jul-12 14:30N 58°40' E 017°07'0 0.0
2018-Jul-12 14:00N 58°40' E 017°07'0 0.0
2018-Jul-12 13:30N 58°40' E 017°07'0 0.0
2018-Jul-12 12:54N 58°40' E 017°07'0 0.0
2018-Jul-12 12:30N 58°40' E 017°07'0 0.0
2018-Jul-12 12:00N 58°40' E 017°07'0 0.0
2018-Jul-12 11:28N 58°40' E 017°07'0 0.0
2018-Jul-12 10:58N 58°40' E 017°07'0 0.0
2018-Jul-12 10:28N 58°40' E 017°07'0 0.0
2018-Jul-12 09:58N 58°40' E 017°07'0 0.0
2018-Jul-12 09:28N 58°40' E 017°07'0 0.0
2018-Jul-12 08:58N 58°40' E 017°07'0 0.0
2018-Jul-12 08:20N 58°40' E 017°07'0 0.0
2018-Jul-12 07:53N 58°40' E 017°07'0 0.0
2018-Jul-12 07:20N 58°40' E 017°07'0 0.0
2018-Jul-12 06:59N 58°40' E 017°07'0 0.0
2018-Jul-12 06:28N 58°40' E 017°07'0 0.0
2018-Jul-12 05:58N 58°40' E 017°07'0 0.0
2018-Jul-12 05:26N 58°40' E 017°07'0 0.0
2018-Jul-12 04:59N 58°40' E 017°07'0 0.0
2018-Jul-12 04:26N 58°40' E 017°07'0 0.0
2018-Jul-12 03:59N 58°40' E 017°07'0 0.0
2018-Jul-12 03:29N 58°40' E 017°07'0 0.0
2018-Jul-12 02:56N 58°40' E 017°07'0 0.0
2018-Jul-12 02:30N 58°40' E 017°07'0 0.0
2018-Jul-12 02:00N 58°40' E 017°07'0 0.0
2018-Jul-12 01:29N 58°40' E 017°07'0 0.0
2018-Jul-12 00:59N 58°40' E 017°07'0 0.0
2018-Jul-12 00:29N 58°40' E 017°07'0 0.0
2018-Jul-11 23:59N 58°40' E 017°07'0 0.0
2018-Jul-11 23:23N 58°40' E 017°07'0 0.0
2018-Jul-11 22:59N 58°40' E 017°07'0 0.0
2018-Jul-11 22:26N 58°40' E 017°07'0 0.0
2018-Jul-11 22:00N 58°40' E 017°07'0 0.0
2018-Jul-11 21:30N 58°40' E 017°07'0 0.0
2018-Jul-11 20:59N 58°40' E 017°07'0 0.0
2018-Jul-11 20:29N 58°40' E 017°07'0 0.0
2018-Jul-11 19:53N 58°40' E 017°07'0 0.0
2018-Jul-11 19:26N 58°40' E 017°07'0 0.0
2018-Jul-11 18:56N 58°40' E 017°07'0 0.0
2018-Jul-11 18:26N 58°40' E 017°07'0 0.0
2018-Jul-11 17:56N 58°40' E 017°07'0 0.0
2018-Jul-11 17:20N 58°40' E 017°07'0 0.0
2018-Jul-11 16:53N 58°40' E 017°07'0 0.0
2018-Jul-11 16:29N 58°40' E 017°07'0 0.0
2018-Jul-11 15:59N 58°40' E 017°07'0 0.0
2018-Jul-11 15:29N 58°40' E 017°07'0 0.0
2018-Jul-11 14:56N 58°40' E 017°07'0 0.0
2018-Jul-11 14:29N 58°40' E 017°07'0 0.0
2018-Jul-11 13:56N 58°40' E 017°07'0 0.0
2018-Jul-11 13:24N 58°40' E 017°07'0 0.0
2018-Jul-11 12:54N 58°40' E 017°07'0 0.0
2018-Jul-11 12:24N 58°40' E 017°07'0 0.0
2018-Jul-11 12:00N 58°40' E 017°07'0 0.0
2018-Jul-11 11:30N 58°40' E 017°07'0 0.0
2018-Jul-11 11:00N 58°40' E 017°07'0 0.0
2018-Jul-11 10:18N 58°40' E 017°07'0 0.0
2018-Jul-11 10:00N 58°40' E 017°07'0 0.0
2018-Jul-11 09:30N 58°40' E 017°07'0 0.0
2018-Jul-11 08:57N 58°40' E 017°07'0 0.0
2018-Jul-11 08:28N 58°40' E 017°07'0 0.0
2018-Jul-11 07:58N 58°40' E 017°07'0 0.0
2018-Jul-11 07:25N 58°40' E 017°07'0 0.0
2018-Jul-11 06:58N 58°40' E 017°07'0 0.0
2018-Jul-11 06:24N 58°40' E 017°07'0 0.0
2018-Jul-11 05:59N 58°40' E 017°07'0 0.0
2018-Jul-11 05:29N 58°40' E 017°07'0 0.0
2018-Jul-11 04:58N 58°40' E 017°07'0 0.0
2018-Jul-11 04:27N 58°40' E 017°07'0 0.0
2018-Jul-11 03:57N 58°40' E 017°07'0 0.0
2018-Jul-11 03:30N 58°40' E 017°07'0 0.0
2018-Jul-11 02:59N 58°40' E 017°07'0 0.0
2018-Jul-11 02:29N 58°40' E 017°07'0 0.0
2018-Jul-11 01:59N 58°40' E 017°07'0 0.0
2018-Jul-11 01:29N 58°40' E 017°07'0 0.0
2018-Jul-11 00:58N 58°40' E 017°07'0 0.0
2018-Jul-11 00:30N 58°40' E 017°07'0 0.0
2018-Jul-11 00:00N 58°40' E 017°07'0 0.0
2018-Jul-10 23:27N 58°40' E 017°07'0 0.0
2018-Jul-10 23:00N 58°40' E 017°07'0 0.0
2018-Jul-10 22:25N 58°40' E 017°07'0 0.0
2018-Jul-10 21:58N 58°40' E 017°07'0 0.0
2018-Jul-10 21:28N 58°40' E 017°07'0 0.0
2018-Jul-10 20:58N 58°40' E 017°07'0 0.0
2018-Jul-10 20:28N 58°40' E 017°07'0 0.0
2018-Jul-10 19:58N 58°40' E 017°07'0 0.0
2018-Jul-10 19:25N 58°40' E 017°07'0 0.0
2018-Jul-10 18:52N 58°40' E 017°07'0 0.0
2018-Jul-10 18:16N 58°40' E 017°07'0 0.0
2018-Jul-10 17:55N 58°40' E 017°07'0 0.0
2018-Jul-10 17:26N 58°40' E 017°07'0 0.0
2018-Jul-10 16:50N 58°40' E 017°07'0 0.0
2018-Jul-10 16:29N 58°40' E 017°07'0 0.0
2018-Jul-10 15:59N 58°40' E 017°07'0 0.0
2018-Jul-10 15:20N 58°40' E 017°07'0 0.0
2018-Jul-10 14:54N 58°40' E 017°07'0 0.0
2018-Jul-10 14:29N 58°40' E 017°07'0 0.0
2018-Jul-10 13:58N 58°40' E 017°07'0 0.0
2018-Jul-10 13:25N 58°40' E 017°07'0 0.0
2018-Jul-10 12:58N 58°40' E 017°07'0 0.0
2018-Jul-10 12:25N 58°40' E 017°07'0 0.0
2018-Jul-10 11:55N 58°40' E 017°07'0 0.0
2018-Jul-10 11:21N 58°40' E 017°07'0 0.0
2018-Jul-10 10:54N 58°40' E 017°07'0 0.0
2018-Jul-10 10:28N 58°40' E 017°07'0 0.4
2018-Jul-10 09:59N 58°40' E 017°06'0 0.0
2018-Jul-10 09:28N 58°40' E 017°06'0 0.0
2018-Jul-10 08:58N 58°40' E 017°06'0 0.0
2018-Jul-10 08:26N 58°40' E 017°06'0 0.0
2018-Jul-10 07:50N 58°40' E 017°06'0 0.0
2018-Jul-10 07:29N 58°40' E 017°06'0 0.0
2018-Jul-10 06:51N 58°40' E 017°06'  

Dump ship's entire track history